createdAt,value
2019-02-22T00:00:54.464Z,0
2019-02-22T00:01:55.851Z,0
2019-02-22T00:02:57.253Z,0
2019-02-22T00:03:58.651Z,0
2019-02-22T00:05:00.112Z,0
2019-02-22T00:06:01.458Z,0
2019-02-22T00:07:02.867Z,0
2019-02-22T00:08:04.266Z,0
2019-02-22T00:09:05.678Z,0
2019-02-22T00:10:07.090Z,0
2019-02-22T00:11:08.495Z,0
2019-02-22T00:12:09.938Z,0
2019-02-22T00:13:11.302Z,0
2019-02-22T00:14:12.710Z,0
2019-02-22T00:15:14.865Z,0
2019-02-22T00:16:15.470Z,0
2019-02-22T00:17:16.877Z,0
2019-02-22T00:18:18.300Z,0
2019-02-22T00:19:19.698Z,0
2019-02-22T00:20:21.104Z,0
2019-02-22T00:21:22.505Z,0
2019-02-22T00:22:23.904Z,0
2019-02-22T00:23:25.298Z,0
2019-02-22T00:24:26.700Z,0
2019-02-22T00:25:28.098Z,0
2019-02-22T00:26:30.084Z,0
2019-02-22T00:27:31.483Z,0
2019-02-22T00:28:32.916Z,0
2019-02-22T00:29:34.308Z,0
2019-02-22T00:30:35.710Z,0
2019-02-22T00:31:37.093Z,0
2019-02-22T00:32:38.498Z,0
2019-02-22T00:33:39.861Z,0
2019-02-22T00:34:41.301Z,0
2019-02-22T00:35:42.723Z,0
2019-02-22T00:36:44.198Z,0
2019-02-22T00:37:45.464Z,0
2019-02-22T00:38:46.854Z,0
2019-02-22T00:39:48.260Z,0
2019-02-22T00:40:49.685Z,0
2019-02-22T00:41:51.081Z,0
2019-02-22T00:42:52.508Z,0
2019-02-22T00:43:53.915Z,0
2019-02-22T00:44:55.372Z,0
2019-02-22T00:45:56.788Z,0
2019-02-22T00:46:58.196Z,0
2019-02-22T00:47:59.593Z,0
2019-02-22T00:49:01.014Z,0
2019-02-22T00:50:02.440Z,0
2019-02-22T00:51:03.846Z,0
2019-02-22T00:52:05.232Z,0
2019-02-22T00:53:06.760Z,0
2019-02-22T00:54:08.048Z,0
2019-02-22T00:55:09.442Z,0
2019-02-22T00:56:10.851Z,0
2019-02-22T00:57:12.262Z,0
2019-02-22T00:58:13.682Z,0
2019-02-22T00:59:15.104Z,0
2019-02-22T01:00:16.529Z,0
2019-02-22T01:01:17.943Z,0
2019-02-22T01:02:19.355Z,0
2019-02-22T01:03:20.763Z,0
2019-02-22T01:04:22.179Z,0
2019-02-22T01:05:23.589Z,0
2019-02-22T01:06:24.998Z,0
2019-02-22T01:07:26.413Z,0
2019-02-22T01:08:27.812Z,0
2019-02-22T01:09:29.217Z,0
2019-02-22T01:10:31.517Z,0
2019-02-22T01:11:32.003Z,0
2019-02-22T01:12:33.415Z,0
2019-02-22T01:13:34.812Z,0
2019-02-22T01:14:36.205Z,0
2019-02-22T01:15:37.638Z,0
2019-02-22T01:16:39.032Z,0
2019-02-22T01:17:40.449Z,0
2019-02-22T01:18:41.859Z,0
2019-02-22T01:19:43.277Z,0
2019-02-22T01:20:54.111Z,0
2019-02-22T01:21:46.033Z,0
2019-02-22T01:22:47.454Z,0
2019-02-22T01:23:48.882Z,0
2019-02-22T01:24:50.278Z,0
2019-02-22T01:25:51.684Z,0
2019-02-22T01:26:53.092Z,0
2019-02-22T01:27:54.502Z,0
2019-02-22T01:28:55.892Z,0
2019-02-22T01:29:57.300Z,0
2019-02-22T01:30:58.689Z,0
2019-02-22T01:32:00.097Z,0
2019-02-22T01:33:01.502Z,0
2019-02-22T01:34:02.899Z,0
2019-02-22T01:35:04.787Z,0
2019-02-22T01:36:06.191Z,0
2019-02-22T01:37:07.604Z,0
2019-02-22T01:38:08.993Z,0
2019-02-22T01:39:10.390Z,0
2019-02-22T01:40:11.802Z,0
2019-02-22T01:41:13.193Z,0
2019-02-22T01:42:14.604Z,0
2019-02-22T01:43:16.009Z,0
2019-02-22T01:44:17.422Z,0
2019-02-22T01:45:18.817Z,0
2019-02-22T01:46:20.228Z,0
2019-02-22T01:47:21.625Z,0
2019-02-22T01:48:23.015Z,0
2019-02-22T01:49:24.463Z,0
2019-02-22T01:50:25.951Z,0
2019-02-22T01:51:28.278Z,0
2019-02-22T01:52:29.690Z,0
2019-02-22T01:53:31.087Z,0
2019-02-22T01:54:32.498Z,0
2019-02-22T01:55:33.890Z,0
2019-02-22T01:56:35.283Z,0
2019-02-22T01:57:36.669Z,0
2019-02-22T01:58:48.034Z,0
2019-02-22T01:59:39.427Z,0
2019-02-22T02:00:40.826Z,0
2019-02-22T02:01:42.233Z,0
2019-02-22T02:02:43.619Z,0
2019-02-22T02:03:45.009Z,0
2019-02-22T02:04:46.399Z,0
2019-02-22T02:05:47.790Z,0
2019-02-22T02:06:49.703Z,0
2019-02-22T02:07:51.098Z,0
2019-02-22T02:08:52.504Z,0
2019-02-22T02:09:53.899Z,0
2019-02-22T02:10:55.294Z,0
2019-02-22T02:11:56.690Z,0
2019-02-22T02:12:58.080Z,0
2019-02-22T02:13:59.476Z,0
2019-02-22T02:15:00.882Z,0
2019-02-22T02:16:02.288Z,0
2019-02-22T02:17:03.686Z,0
2019-02-22T02:18:05.082Z,0
2019-02-22T02:19:06.488Z,0
2019-02-22T02:20:07.921Z,0
2019-02-22T02:21:09.335Z,0
2019-02-22T02:22:10.725Z,0
2019-02-22T02:23:12.657Z,0
2019-02-22T02:24:14.047Z,0
2019-02-22T02:25:15.440Z,0
2019-02-22T02:26:16.846Z,0
2019-02-22T02:27:18.243Z,0
2019-02-22T02:28:19.647Z,0
2019-02-22T02:29:21.043Z,0
2019-02-22T02:30:22.436Z,0
2019-02-22T02:31:23.841Z,0
2019-02-22T02:32:25.238Z,0
2019-02-22T02:33:26.653Z,0
2019-02-22T02:34:28.065Z,0
2019-02-22T02:35:29.462Z,0
2019-02-22T02:36:30.867Z,0
2019-02-22T02:37:32.268Z,0
2019-02-22T02:38:33.658Z,0
2019-02-22T02:39:35.073Z,0
2019-02-22T02:40:36.460Z,0
2019-02-22T02:41:37.867Z,0
2019-02-22T02:42:39.275Z,0
2019-02-22T02:43:40.701Z,0
2019-02-22T02:44:42.100Z,0
2019-02-22T02:45:43.498Z,0
2019-02-22T02:46:44.912Z,0
2019-02-22T02:47:46.305Z,0
2019-02-22T02:48:47.698Z,0
2019-02-22T02:49:49.127Z,0
2019-02-22T02:50:50.538Z,0
2019-02-22T02:51:51.943Z,0
2019-02-22T02:52:53.371Z,0
2019-02-22T02:53:54.796Z,0
2019-02-22T02:54:56.130Z,0
2019-02-22T02:55:57.532Z,0
2019-02-22T02:56:58.935Z,0
2019-02-22T02:58:00.338Z,0
2019-02-22T02:59:01.718Z,0
2019-02-22T03:00:03.115Z,0
2019-02-22T03:01:04.512Z,0
2019-02-22T03:02:05.928Z,0
2019-02-22T03:03:07.309Z,0
2019-02-22T03:04:08.699Z,0
2019-02-22T03:05:10.108Z,0
2019-02-22T03:06:11.518Z,0
2019-02-22T03:07:12.911Z,0
2019-02-22T03:08:14.314Z,0
2019-02-22T03:09:15.730Z,0
2019-02-22T03:10:17.120Z,0
2019-02-22T03:11:21.074Z,0
2019-02-22T03:12:19.908Z,0
2019-02-22T03:13:21.340Z,0
2019-02-22T03:14:22.763Z,0
2019-02-22T03:15:24.158Z,0
2019-02-22T03:16:25.567Z,0
2019-02-22T03:17:27.008Z,0
2019-02-22T03:18:28.417Z,0
2019-02-22T03:19:29.815Z,0
2019-02-22T03:20:31.208Z,0
2019-02-22T03:21:32.594Z,0
2019-02-22T03:22:34.023Z,0
2019-02-22T03:23:35.425Z,0
2019-02-22T03:24:36.917Z,0
2019-02-22T03:25:38.202Z,0
2019-02-22T03:26:39.611Z,0
2019-02-22T03:27:41.023Z,0
2019-02-22T03:28:42.428Z,0
2019-02-22T03:29:43.818Z,0
2019-02-22T03:30:45.205Z,0
2019-02-22T03:31:46.604Z,0
2019-02-22T03:32:48.031Z,0
2019-02-22T03:33:49.467Z,0
2019-02-22T03:34:50.886Z,0
2019-02-22T03:35:52.286Z,0
2019-02-22T03:36:53.694Z,0
2019-02-22T03:37:55.101Z,0
2019-02-22T03:38:56.514Z,0
2019-02-22T03:39:57.910Z,0
2019-02-22T03:40:59.303Z,0
2019-02-22T03:42:00.683Z,0
2019-02-22T03:43:02.103Z,0
2019-02-22T03:44:03.500Z,0
2019-02-22T03:45:04.903Z,0
2019-02-22T03:46:06.307Z,0
2019-02-22T03:47:07.705Z,0
2019-02-22T03:48:09.125Z,0
2019-02-22T03:49:10.524Z,0
2019-02-22T03:50:11.944Z,0
2019-02-22T03:51:13.327Z,0
2019-02-22T03:52:14.726Z,0
2019-02-22T03:53:16.106Z,0
2019-02-22T03:54:17.505Z,0
2019-02-22T03:55:18.901Z,0
2019-02-22T03:56:20.316Z,0
2019-02-22T03:57:21.710Z,0
2019-02-22T03:58:23.876Z,0
2019-02-22T03:59:25.275Z,0
2019-02-22T04:00:26.682Z,0
2019-02-22T04:01:28.072Z,0
2019-02-22T04:02:29.473Z,0
2019-02-22T04:03:30.892Z,0
2019-02-22T04:04:32.275Z,0
2019-02-22T04:05:33.682Z,0
2019-02-22T04:06:35.081Z,0
2019-02-22T04:07:36.497Z,0
2019-02-22T04:08:37.930Z,0
2019-02-22T04:09:39.316Z,0
2019-02-22T04:10:40.736Z,0
2019-02-22T04:11:45.788Z,0
2019-02-22T04:12:43.516Z,0
2019-02-22T04:13:44.895Z,0
2019-02-22T04:14:46.296Z,0
2019-02-22T04:15:47.685Z,0
2019-02-22T04:16:49.070Z,0
2019-02-22T04:17:50.481Z,0
2019-02-22T04:18:51.879Z,0
2019-02-22T04:19:53.265Z,0
2019-02-22T04:20:54.663Z,0
2019-02-22T04:21:56.072Z,0
2019-02-22T04:22:57.760Z,0
2019-02-22T04:23:59.160Z,0
2019-02-22T04:25:00.566Z,0
2019-02-22T04:26:01.913Z,0
2019-02-22T04:27:03.301Z,0
2019-02-22T04:28:06.243Z,0
2019-02-22T04:29:07.575Z,0
2019-02-22T04:30:09.606Z,0
2019-02-22T04:31:11.002Z,0
2019-02-22T04:32:12.383Z,0
2019-02-22T04:33:13.769Z,0
2019-02-22T04:34:15.189Z,0
2019-02-22T04:35:16.556Z,0
2019-02-22T04:36:17.953Z,0
2019-02-22T04:37:19.345Z,0
2019-02-22T04:38:20.731Z,0
2019-02-22T04:39:22.133Z,0
2019-02-22T04:40:23.555Z,0
2019-02-22T04:41:24.934Z,0
2019-02-22T04:42:26.335Z,0
2019-02-22T04:43:27.749Z,0
2019-02-22T04:44:29.175Z,0
2019-02-22T04:45:30.566Z,0
2019-02-22T04:46:31.966Z,0
2019-02-22T04:47:33.354Z,0
2019-02-22T04:48:34.767Z,0
2019-02-22T04:49:36.162Z,0
2019-02-22T04:50:37.548Z,0
2019-02-22T04:51:38.933Z,0
2019-02-22T04:52:40.322Z,0
2019-02-22T04:53:41.717Z,0
2019-02-22T04:54:43.110Z,0
2019-02-22T04:55:44.523Z,0
2019-02-22T04:56:45.926Z,0
2019-02-22T04:57:47.303Z,0
2019-02-22T04:58:48.701Z,0
2019-02-22T04:59:50.091Z,0
2019-02-22T05:00:51.484Z,0
2019-02-22T05:01:52.884Z,0
2019-02-22T05:02:54.303Z,0
2019-02-22T05:03:55.702Z,0
2019-02-22T05:04:57.086Z,0
2019-02-22T05:05:58.483Z,0
2019-02-22T05:06:59.880Z,0
2019-02-22T05:08:01.260Z,0
2019-02-22T05:09:02.640Z,0
2019-02-22T05:10:04.041Z,0
2019-02-22T05:11:05.419Z,0
2019-02-22T05:12:10.899Z,0
2019-02-22T05:13:08.161Z,0
2019-02-22T05:14:09.551Z,0
2019-02-22T05:15:12.799Z,0
2019-02-22T05:16:12.286Z,0
2019-02-22T05:17:13.680Z,0
2019-02-22T05:18:15.073Z,0
2019-02-22T05:19:16.466Z,0
2019-02-22T05:20:17.869Z,0
2019-02-22T05:21:19.272Z,0
2019-02-22T05:22:20.657Z,0
2019-02-22T05:23:22.047Z,0
2019-02-22T05:24:23.427Z,0
2019-02-22T05:25:24.823Z,0
2019-02-22T05:26:26.240Z,0
2019-02-22T05:27:27.644Z,0
2019-02-22T05:28:29.026Z,0
2019-02-22T05:29:30.421Z,0
2019-02-22T05:30:31.905Z,0
2019-02-22T05:31:33.285Z,0
2019-02-22T05:32:34.702Z,0
2019-02-22T05:33:36.085Z,0
2019-02-22T05:34:37.473Z,0
2019-02-22T05:35:38.859Z,0
2019-02-22T05:36:40.321Z,0
2019-02-22T05:37:41.712Z,0
2019-02-22T05:38:43.105Z,0
2019-02-22T05:39:44.508Z,0
2019-02-22T05:40:45.910Z,0
2019-02-22T05:41:47.324Z,0
2019-02-22T05:42:48.711Z,0
2019-02-22T05:43:50.093Z,0
2019-02-22T05:44:51.485Z,0
2019-02-22T05:45:52.875Z,0
2019-02-22T05:47:00.348Z,0
2019-02-22T05:47:55.657Z,0
2019-02-22T05:48:57.039Z,0
2019-02-22T05:49:58.416Z,0
2019-02-22T05:50:59.812Z,0
2019-02-22T05:52:01.357Z,0
2019-02-22T05:53:02.733Z,0
2019-02-22T05:54:04.139Z,0
2019-02-22T05:55:05.517Z,0
2019-02-22T05:56:06.903Z,0
2019-02-22T05:57:08.321Z,0
2019-02-22T05:58:09.672Z,0
2019-02-22T05:59:11.074Z,0
2019-02-22T06:00:12.472Z,0
2019-02-22T06:01:13.866Z,0
2019-02-22T06:02:15.262Z,0
2019-02-22T06:03:16.754Z,0
2019-02-22T06:04:18.231Z,0
2019-02-22T06:05:19.629Z,0
2019-02-22T06:06:21.838Z,0
2019-02-22T06:07:23.289Z,5
2019-02-22T06:08:25.559Z,5
2019-02-22T06:09:26.959Z,5
2019-02-22T06:10:28.348Z,5
2019-02-22T06:11:29.747Z,5
2019-02-22T06:12:34.581Z,5
2019-02-22T06:13:32.491Z,5
2019-02-22T06:14:33.875Z,5
2019-02-22T06:15:35.289Z,5
2019-02-22T06:16:36.687Z,10
2019-02-22T06:17:38.077Z,10
2019-02-22T06:18:39.461Z,10
2019-02-22T06:19:40.861Z,10
2019-02-22T06:20:42.242Z,10
2019-02-22T06:21:43.649Z,10
2019-02-22T06:22:45.021Z,15
2019-02-22T06:23:46.417Z,15
2019-02-22T06:24:47.816Z,15
2019-02-22T06:25:49.186Z,15
2019-02-22T06:26:50.602Z,15
2019-02-22T06:27:51.973Z,15
2019-02-22T06:28:53.363Z,15
2019-02-22T06:29:54.756Z,20
2019-02-22T06:30:56.153Z,20
2019-02-22T06:31:57.542Z,20
2019-02-22T06:32:58.928Z,20
2019-02-22T06:34:00.346Z,20
2019-02-22T06:35:01.729Z,20
2019-02-22T06:36:03.135Z,25
2019-02-22T06:37:04.529Z,25
2019-02-22T06:38:05.913Z,25
2019-02-22T06:39:07.322Z,25
2019-02-22T06:40:08.717Z,25
2019-02-22T06:41:10.105Z,30
2019-02-22T06:42:11.506Z,25
2019-02-22T06:43:12.894Z,25
2019-02-22T13:19:22.410Z,110
2019-02-22T13:20:23.797Z,110
2019-02-22T13:21:25.224Z,110
2019-02-22T13:22:26.636Z,110
2019-02-22T13:23:28.037Z,110
2019-02-22T13:24:29.432Z,105
2019-02-22T13:25:31.049Z,105
2019-02-22T13:26:32.526Z,105
2019-02-22T13:27:33.928Z,105
2019-02-22T13:28:35.316Z,100
2019-02-22T13:29:36.716Z,100
2019-02-22T13:30:38.124Z,100
2019-02-22T13:31:39.521Z,100
2019-02-22T13:32:40.941Z,100
2019-02-22T13:33:42.334Z,100
2019-02-22T13:34:43.731Z,95
2019-02-22T13:35:45.126Z,100
2019-02-22T13:36:46.538Z,100
2019-02-22T13:37:47.973Z,100
2019-02-22T13:38:49.389Z,100
2019-02-22T13:39:50.810Z,100
2019-02-22T13:40:52.216Z,95
2019-02-22T13:41:53.618Z,95
2019-02-22T13:42:55.022Z,95
2019-02-22T13:43:56.404Z,95
2019-02-22T13:44:57.822Z,95
2019-02-22T13:45:59.255Z,95
2019-02-22T13:47:00.715Z,90
2019-02-22T13:48:02.102Z,90
2019-02-22T13:49:03.502Z,85
2019-02-22T13:50:04.929Z,85
2019-02-22T13:51:07.189Z,85
2019-02-22T13:52:08.713Z,85
2019-02-22T13:53:10.111Z,85
2019-02-22T13:54:11.498Z,80
2019-02-22T13:55:12.900Z,80
2019-02-22T13:56:14.309Z,80
2019-02-22T13:57:15.713Z,80
2019-02-22T13:58:17.130Z,75
2019-02-22T13:59:18.523Z,75
2019-02-22T14:00:19.928Z,75
2019-02-22T18:56:52.725Z,0
2019-02-22T18:57:54.138Z,0
2019-02-22T18:58:55.514Z,0
2019-02-22T18:59:56.951Z,0
2019-02-22T19:00:58.307Z,0
2019-02-22T19:01:59.698Z,0
2019-02-22T19:03:01.099Z,0
2019-02-22T19:04:02.494Z,0
2019-02-22T19:05:03.904Z,0
2019-02-22T19:06:05.316Z,0
2019-02-22T19:07:06.721Z,0
2019-02-22T19:08:08.099Z,0
2019-02-22T19:09:09.490Z,0
2019-02-22T19:10:10.922Z,0
2019-02-22T19:11:12.322Z,0
2019-02-22T19:12:13.728Z,0
2019-02-22T19:13:15.188Z,0
2019-02-22T19:14:16.586Z,0
2019-02-22T19:15:18.006Z,0
2019-02-22T19:16:20.117Z,0
2019-02-22T19:17:30.096Z,0
2019-02-22T19:18:22.978Z,0
2019-02-22T19:19:24.390Z,0
2019-02-22T19:20:25.796Z,0
2019-02-22T19:21:28.164Z,0
2019-02-22T19:22:29.617Z,0
2019-02-22T19:23:30.965Z,0
2019-02-22T19:24:32.383Z,0
2019-02-22T19:25:33.773Z,0
2019-02-22T19:26:35.176Z,0
2019-02-22T19:27:36.618Z,0
2019-02-22T19:28:38.773Z,0
2019-02-22T19:29:44.629Z,0
2019-02-22T19:30:45.980Z,0
2019-02-22T19:31:47.417Z,0
2019-02-22T19:32:49.723Z,0
2019-02-22T19:33:51.156Z,0
2019-02-22T19:34:52.571Z,0
2019-02-22T19:35:53.987Z,0
2019-02-22T19:36:55.439Z,0
2019-02-22T19:37:57.661Z,0
2019-02-22T19:38:59.265Z,0
2019-02-22T19:40:01.992Z,0
2019-02-22T19:41:03.405Z,0
2019-02-22T19:42:04.855Z,0
2019-02-22T19:43:06.301Z,0
2019-02-22T19:44:07.735Z,0
2019-02-22T19:45:09.186Z,0
2019-02-22T19:46:10.625Z,0
2019-02-22T19:47:12.068Z,0
2019-02-22T19:48:13.492Z,0
2019-02-22T19:49:16.225Z,0
2019-02-22T19:50:18.540Z,0
2019-02-22T19:51:20.549Z,0
2019-02-22T19:52:21.999Z,0
2019-02-22T19:53:23.434Z,0
2019-02-22T19:54:24.871Z,0
2019-02-22T19:55:26.274Z,0
2019-02-22T19:56:27.707Z,0
2019-02-22T19:57:29.113Z,0
2019-02-22T19:58:30.523Z,0
2019-02-22T19:59:31.967Z,0
2019-02-22T20:00:34.154Z,0
2019-02-22T20:01:35.586Z,0
2019-02-22T20:02:37.019Z,0
2019-02-22T20:03:39.242Z,0
2019-02-22T20:04:40.681Z,0
2019-02-22T20:05:42.076Z,0
2019-02-22T20:06:44.278Z,0
2019-02-22T20:07:45.745Z,0
2019-02-22T20:08:47.845Z,0
2019-02-22T20:09:53.728Z,0
2019-02-22T20:10:56.830Z,0
2019-02-22T20:11:58.447Z,0
2019-02-22T20:13:01.664Z,0
2019-02-22T20:14:02.299Z,0
2019-02-22T20:15:04.596Z,0
2019-02-22T20:16:06.086Z,0
2019-02-22T20:17:07.508Z,0
2019-02-22T20:18:09.000Z,0
2019-02-22T20:19:10.563Z,0
2019-02-22T20:20:13.747Z,0
2019-02-22T20:21:15.297Z,0
2019-02-22T20:22:16.734Z,0
2019-02-22T20:23:19.823Z,0
2019-02-22T20:24:22.066Z,0
2019-02-22T20:25:23.569Z,0
2019-02-22T20:26:26.653Z,0
2019-02-22T20:27:28.659Z,0
2019-02-22T20:28:30.408Z,0
2019-02-22T20:29:31.853Z,0
2019-02-22T20:30:33.309Z,0
2019-02-22T20:31:34.743Z,0
2019-02-22T20:32:36.211Z,0
2019-02-22T20:33:37.644Z,0
2019-02-22T20:34:39.076Z,0
2019-02-22T20:35:40.496Z,0
2019-02-22T20:36:44.000Z,0
2019-02-22T20:37:51.737Z,0
2019-02-22T20:38:45.631Z,0
2019-02-22T20:39:47.047Z,0
2019-02-22T20:40:51.758Z,0
2019-02-22T20:41:53.830Z,0
2019-02-22T20:42:56.211Z,0
2019-02-22T20:43:57.689Z,0
2019-02-22T20:44:59.169Z,0
2019-02-22T20:46:02.233Z,0
2019-02-22T20:47:03.647Z,0
2019-02-22T20:48:05.598Z,0
2019-02-22T20:49:06.605Z,0
2019-02-22T20:50:08.073Z,0
2019-02-22T20:51:09.518Z,0
2019-02-22T20:52:12.762Z,0
2019-02-22T20:53:14.199Z,0
2019-02-22T20:54:17.244Z,0
2019-02-22T20:55:19.601Z,0
2019-02-22T20:56:21.143Z,0
2019-02-22T20:57:23.328Z,0
2019-02-22T20:58:25.624Z,0
2019-02-22T20:59:27.578Z,0
2019-02-22T21:00:29.091Z,0
2019-02-22T21:01:30.506Z,0
2019-02-22T21:02:32.592Z,0
2019-02-22T21:03:35.799Z,0
2019-02-22T21:04:37.888Z,0
2019-02-22T21:05:39.316Z,0
2019-02-22T21:06:40.816Z,0
2019-02-22T21:07:42.244Z,0
2019-02-22T21:08:44.999Z,0
2019-02-22T21:09:47.636Z,0
2019-02-22T21:10:48.645Z,0
2019-02-22T21:11:51.056Z,0
2019-02-22T21:12:52.543Z,0
2019-02-22T21:13:54.619Z,0
2019-02-22T21:14:56.120Z,0
2019-02-22T21:15:58.079Z,0
2019-02-22T21:16:59.523Z,0
2019-02-22T21:18:01.005Z,0
2019-02-22T21:19:02.431Z,0
2019-02-22T21:20:03.880Z,0
2019-02-22T21:21:05.316Z,0
2019-02-22T21:22:07.621Z,0
2019-02-22T21:23:09.038Z,0
2019-02-22T21:24:10.455Z,0
2019-02-22T21:25:12.105Z,0
2019-02-22T21:26:13.533Z,0
2019-02-22T21:27:14.964Z,0
2019-02-22T21:28:16.388Z,0
2019-02-22T21:29:17.801Z,0
2019-02-22T21:30:19.242Z,0
2019-02-22T21:31:21.498Z,0
2019-02-22T21:32:22.901Z,0
2019-02-22T21:33:24.325Z,0
2019-02-22T21:34:25.692Z,0
2019-02-22T21:35:27.107Z,0
2019-02-22T21:36:28.505Z,0
2019-02-22T21:37:29.899Z,0
2019-02-22T21:38:31.330Z,0
2019-02-22T21:39:32.732Z,0
2019-02-22T21:40:34.151Z,0
2019-02-22T21:41:35.548Z,0
2019-02-22T21:42:36.958Z,0
2019-02-22T21:43:38.354Z,0
2019-02-22T21:44:39.755Z,0
2019-02-22T21:45:41.157Z,0
2019-02-22T21:46:42.563Z,0
2019-02-22T21:47:54.110Z,0
2019-02-22T21:48:45.307Z,0
2019-02-22T21:49:46.710Z,0
2019-02-22T21:50:48.137Z,0
2019-02-22T21:51:49.496Z,0
2019-02-22T21:52:50.895Z,0
2019-02-22T21:53:52.280Z,0
2019-02-22T21:54:53.689Z,0
2019-02-22T21:55:55.096Z,0
2019-02-22T21:56:56.516Z,0
2019-02-22T21:57:57.919Z,0
2019-02-22T21:58:59.306Z,0
2019-02-22T22:00:00.706Z,0
2019-02-22T22:01:02.102Z,0
2019-02-22T22:02:03.496Z,0
2019-02-22T22:03:04.888Z,0
2019-02-22T22:04:06.280Z,0
2019-02-22T22:05:07.670Z,0
2019-02-22T22:06:09.068Z,0
2019-02-22T22:07:10.452Z,0
2019-02-22T22:08:11.848Z,0
2019-02-22T22:09:13.255Z,0
2019-02-22T22:10:14.650Z,0
2019-02-22T22:11:16.052Z,0
2019-02-22T22:12:17.445Z,0
2019-02-22T22:13:18.833Z,0
2019-02-22T22:14:20.224Z,0
2019-02-22T22:15:21.656Z,0
2019-02-22T22:16:23.041Z,0
2019-02-22T22:17:24.439Z,0
2019-02-22T22:18:25.821Z,0
2019-02-22T22:19:27.239Z,0
2019-02-22T22:20:29.174Z,0
2019-02-22T22:21:30.558Z,0
2019-02-22T22:22:31.954Z,0
2019-02-22T22:23:33.334Z,0
2019-02-22T22:24:34.723Z,0
2019-02-22T22:25:36.124Z,0
2019-02-22T22:26:37.511Z,0
2019-02-22T22:27:38.890Z,0
2019-02-22T22:28:40.286Z,0
2019-02-22T22:29:41.671Z,0
2019-02-22T22:30:43.060Z,0
2019-02-22T22:31:44.419Z,0
2019-02-22T22:32:45.818Z,0
2019-02-22T22:33:47.212Z,0
2019-02-22T22:34:48.609Z,0
2019-02-22T22:35:49.999Z,0
2019-02-22T22:36:51.399Z,0
2019-02-22T22:37:52.797Z,0
2019-02-22T22:38:55.006Z,0
2019-02-22T22:39:55.644Z,0
2019-02-22T22:40:56.990Z,0
2019-02-22T22:41:58.384Z,0
2019-02-22T22:42:59.769Z,0
2019-02-22T22:44:01.145Z,0
2019-02-22T22:45:02.537Z,0
2019-02-22T22:46:03.921Z,0
2019-02-22T22:47:05.313Z,0
2019-02-22T22:48:06.703Z,0
2019-02-22T22:49:08.101Z,0
2019-02-22T22:50:09.491Z,0
2019-02-22T22:51:10.880Z,0
2019-02-22T22:52:12.273Z,0
2019-02-22T22:53:13.674Z,0
2019-02-22T22:54:15.063Z,0
2019-02-22T22:55:16.437Z,0
2019-02-22T22:56:17.817Z,0
2019-02-22T22:57:19.217Z,0
2019-02-22T22:58:20.611Z,0
2019-02-22T22:59:22.009Z,0
2019-02-22T23:00:23.401Z,0
2019-02-22T23:01:24.785Z,0
2019-02-22T23:02:26.188Z,0
2019-02-22T23:03:27.578Z,0
2019-02-22T23:04:28.975Z,0
2019-02-22T23:05:30.368Z,0
2019-02-22T23:06:31.756Z,0
2019-02-22T23:07:33.149Z,0
2019-02-22T23:08:34.534Z,0
2019-02-22T23:09:35.914Z,0
2019-02-22T23:10:37.295Z,0
2019-02-22T23:11:38.686Z,0
2019-02-22T23:12:40.071Z,0
2019-02-22T23:13:41.457Z,0
2019-02-22T23:14:42.848Z,0
2019-02-22T23:15:44.239Z,0
2019-02-22T23:16:45.634Z,0
2019-02-22T23:17:47.017Z,0
2019-02-22T23:18:48.403Z,0
2019-02-22T23:19:49.797Z,0
2019-02-22T23:20:51.201Z,0
2019-02-22T23:21:52.595Z,0
2019-02-22T23:22:53.980Z,0
2019-02-22T23:23:55.381Z,0
2019-02-22T23:24:56.766Z,0
2019-02-22T23:25:58.157Z,0
2019-02-22T23:26:59.546Z,0
2019-02-22T23:28:00.938Z,0
2019-02-22T23:29:02.327Z,0
2019-02-22T23:30:03.726Z,0
2019-02-22T23:31:05.114Z,0
2019-02-22T23:32:06.526Z,0
2019-02-22T23:33:07.906Z,0
2019-02-22T23:34:09.290Z,0
2019-02-22T23:35:10.690Z,0
2019-02-22T23:36:12.071Z,0
2019-02-22T23:37:14.420Z,0
2019-02-22T23:38:15.886Z,0
2019-02-22T23:39:17.170Z,0
2019-02-22T23:40:18.564Z,0
2019-02-22T23:41:19.949Z,0
2019-02-22T23:42:21.346Z,0
2019-02-22T23:43:22.735Z,0
2019-02-22T23:44:24.130Z,0
2019-02-22T23:45:25.513Z,0
2019-02-22T23:46:26.905Z,0
2019-02-22T23:47:28.300Z,0
2019-02-22T23:48:29.684Z,0
2019-02-22T23:49:31.071Z,0
2019-02-22T23:50:32.456Z,0
2019-02-22T23:51:33.852Z,0
2019-02-22T23:52:35.239Z,0
2019-02-22T23:53:36.623Z,0
2019-02-22T23:54:38.027Z,0
2019-02-22T23:55:39.419Z,0
2019-02-22T23:56:40.807Z,0
2019-02-22T23:57:42.189Z,0
2019-02-22T23:58:43.588Z,0
2019-02-22T23:59:44.989Z,0
